Time;durP1;ratioP1;P1;durP2;ratioP2;P2;SDS_P1;SDS_P2;PMS_P1;PMS_P2;Temp;Humidity;BMP_temperature;BMP_pressure;BME280_temperature;BME280_humidity;BME280_pressure;Samples;Min_cycle;Max_cycle;Signal;HPM_P1;HPM_P2
2023/01/30 00:00:32;;;;;;;44.65;31.40;;;;;;;2.61;100.00;100951.63;5031499;28;20060;-67
2023/01/30 00:02:59;;;;;;;51.35;32.65;;;;;;;2.76;100.00;100985.25;5030924;28;20075;-67
2023/01/30 00:05:24;;;;;;;48.35;31.33;;;;;;;2.58;100.00;100933.50;5029605;28;20152;-66
2023/01/30 00:07:50;;;;;;;40.97;29.15;;;;;;;2.81;100.00;100957.50;5013879;28;20460;-68
2023/01/30 00:10:15;;;;;;;44.03;31.23;;;;;;;2.81;100.00;100954.03;5028457;27;20129;-66
2023/01/30 00:12:41;;;;;;;46.80;30.15;;;;;;;2.80;100.00;100948.03;5028616;27;20037;-67
2023/01/30 00:15:07;;;;;;;47.75;32.30;;;;;;;2.74;100.00;100916.09;5031869;27;20536;-67
2023/01/30 00:17:32;;;;;;;43.10;29.55;;;;;;;2.90;100.00;100936.69;5030938;27;20033;-67
2023/01/30 00:19:58;;;;;;;45.38;30.60;;;;;;;2.92;100.00;100936.63;5070675;27;20068;-67
2023/01/30 00:22:23;;;;;;;41.90;30.50;;;;;;;2.91;100.00;100929.72;5029625;27;20029;-67
2023/01/30 00:24:49;;;;;;;47.80;30.70;;;;;;;2.94;100.00;100935.75;5024229;27;20060;-67
2023/01/30 00:27:14;;;;;;;36.67;28.13;;;;;;;2.79;100.00;100909.97;5020266;28;20025;-67
2023/01/30 00:29:39;;;;;;;46.90;29.55;;;;;;;2.98;100.00;100942.63;5030036;28;20468;-67
2023/01/30 00:32:05;;;;;;;44.80;30.77;;;;;;;2.88;100.00;100915.06;5031860;28;20126;-67
2023/01/30 00:34:30;;;;;;;40.63;29.20;;;;;;;3.00;100.00;100929.66;5013102;28;20037;-67
2023/01/30 00:36:56;;;;;;;45.33;30.60;;;;;;;2.83;100.00;100885.72;5031059;27;20022;-67
2023/01/30 00:39:21;;;;;;;46.17;30.58;;;;;;;2.89;100.00;100888.22;5030429;28;20034;-66
2023/01/30 00:47:15;;;;;;;41.15;28.42;;;;;;;3.09;100.00;100880.22;5030272;28;20048;-67
2023/01/30 00:49:41;;;;;;;44.03;29.50;;;;;;;2.99;100.00;100861.31;5020130;28;20056;-67
2023/01/30 00:52:06;;;;;;;42.30;29.17;;;;;;;2.70;100.00;100806.31;5036491;27;20029;-67
2023/01/30 00:54:32;;;;;;;47.17;31.27;;;;;;;3.08;100.00;100861.19;5012883;28;20368;-67
2023/01/30 00:56:57;;;;;;;51.47;29.67;;;;;;;3.15;100.00;100889.66;5027735;27;20104;-66
2023/01/30 00:59:23;;;;;;;41.85;31.52;;;;;;;3.08;100.00;100871.56;5040710;28;20033;-67
2023/01/30 01:01:48;;;;;;;48.67;30.42;;;;;;;3.20;100.00;100890.47;5029570;27;20086;-66
2023/01/30 01:04:13;;;;;;;48.17;31.25;;;;;;;3.20;100.00;100893.06;5030119;28;20444;-66
2023/01/30 01:06:39;;;;;;;42.92;29.85;;;;;;;3.21;100.00;100887.00;5012837;28;20420;-67
2023/01/30 01:09:05;;;;;;;57.35;31.67;;;;;;;3.21;100.00;100877.44;5030326;27;20027;-66
2023/01/30 01:11:30;;;;;;;52.95;32.00;;;;;;;3.23;100.00;100874.84;5030390;27;20441;-67
2023/01/30 01:14:00;;;;;;;44.10;30.77;;;;;;;3.23;100.00;100882.63;5059760;27;20067;-67
2023/01/30 01:16:26;;;;;;;46.95;31.45;;;;;;;3.18;100.00;100858.50;5011926;28;20040;-66
2023/01/30 01:18:52;;;;;;;53.78;30.42;;;;;;;3.23;100.00;100869.66;5029651;28;20386;-68
2023/01/30 01:21:18;;;;;;;53.78;32.28;;;;;;;3.26;100.00;100885.19;5029737;28;20025;-67
2023/01/30 01:23:48;;;;;;;49.25;30.58;;;;;;;3.22;100.00;100886.09;5030201;28;20029;-67
2023/01/30 01:26:14;;;;;;;49.45;32.20;;;;;;;3.24;100.00;100897.34;5013153;28;20064;-67
2023/01/30 01:28:39;;;;;;;50.25;31.85;;;;;;;3.30;100.00;100897.25;5029443;28;20041;-66
2023/01/30 01:31:13;;;;;;;44.78;31.50;;;;;;;3.30;100.00;100889.47;5029766;27;20032;-67
2023/01/30 01:33:38;;;;;;;43.55;31.13;;;;;;;3.19;100.00;100860.19;5042639;28;20045;-67
2023/01/30 01:36:04;;;;;;;44.70;32.67;;;;;;;3.33;100.00;100892.03;5012480;28;20031;-67
2023/01/30 01:38:30;;;;;;;45.20;31.38;;;;;;;3.25;100.00;100867.88;5046780;27;20119;-66
2023/01/30 01:41:01;;;;;;;46.67;30.70;;;;;;;3.40;100.00;100888.47;5031160;27;20452;-67
2023/01/30 01:43:31;;;;;;;45.08;30.65;;;;;;;3.22;100.00;100857.53;5029499;28;20364;-67
2023/01/30 01:46:24;;;;;;;42.03;31.23;;;;;;;3.37;100.00;100875.53;5029642;28;20033;-67
2023/01/30 01:48:55;;;;;;;50.40;31.55;;;;;;;3.30;100.00;100871.31;5017220;27;20048;-68
2023/01/30 01:51:49;;;;;;;53.83;31.95;;;;;;;3.39;100.00;100881.56;5093642;27;20027;-67
2023/01/30 01:54:20;;;;;;;43.90;31.02;;;;;;;3.38;100.00;100885.06;5049961;27;20037;-67
2023/01/30 01:56:47;;;;;;;50.85;32.45;;;;;;;3.33;100.00;100866.94;5038480;27;20092;-67
2023/01/30 01:59:18;;;;;;;44.88;31.45;;;;;;;3.38;100.00;100874.66;5055271;27;20035;-67
2023/01/30 02:01:44;;;;;;;47.67;34.13;;;;;;;3.39;100.00;100873.75;5046711;27;20032;-67
2023/01/30 02:04:10;;;;;;;43.83;29.83;;;;;;;3.15;100.00;100836.00;5011934;28;20110;-67
2023/01/30 02:06:37;;;;;;;54.80;32.10;;;;;;;3.38;100.00;100862.50;5044762;28;20436;-65
2023/01/30 02:09:05;;;;;;;50.92;32.97;;;;;;;3.35;100.00;100839.19;5075865;27;20404;-66
2023/01/30 02:11:38;;;;;;;48.58;32.75;;;;;;;3.39;100.00;100860.78;5029508;27;20029;-66
2023/01/30 02:14:03;;;;;;;41.45;30.77;;;;;;;3.14;100.00;100802.28;5037281;27;20420;-66
2023/01/30 02:16:29;;;;;;;48.28;31.65;;;;;;;3.37;100.00;100842.63;5037406;27;20037;-66
2023/01/30 02:18:54;;;;;;;45.20;31.15;;;;;;;3.31;100.00;100828.88;5027825;28;20040;-66
2023/01/30 02:21:34;;;;;;;43.55;30.95;;;;;;;3.41;100.00;100827.88;5029299;28;20021;-66
2023/01/30 02:24:20;;;;;;;44.45;33.25;;;;;;;3.35;100.00;100822.75;5030773;27;20029;-67
2023/01/30 02:27:10;;;;;;;57.92;33.15;;;;;;;3.42;100.00;100842.56;5047453;27;20045;-67
2023/01/30 02:29:57;;;;;;;44.80;30.98;;;;;;;3.42;100.00;100816.59;5029710;27;20040;-67
2023/01/30 02:32:44;;;;;;;42.25;30.35;;;;;;;3.47;100.00;100814.78;5029830;27;20040;-68
2023/01/30 02:35:57;;;;;;;43.65;31.40;;;;;;;3.46;100.00;100810.47;5002145;28;20037;-67
2023/01/30 02:38:39;;;;;;;51.22;34.05;;;;;;;3.45;100.00;100794.03;4985791;28;20121;-67
2023/01/30 02:41:24;;;;;;;47.33;33.53;;;;;;;3.45;100.00;100794.03;5025105;27;20193;-66
2023/01/30 02:44:14;;;;;;;49.13;31.65;;;;;;;3.49;100.00;100774.91;5026835;28;20107;-66
2023/01/30 02:46:45;;;;;;;53.00;34.13;;;;;;;3.51;100.00;100782.69;5019890;28;20046;-67
2023/01/30 02:49:31;;;;;;;50.47;31.20;;;;;;;3.52;100.00;100768.81;5010993;28;20040;-66
2023/01/30 02:51:59;;;;;;;52.17;32.47;;;;;;;3.45;100.00;100747.28;5011489;28;20036;-67
2023/01/30 02:54:24;;;;;;;49.00;32.72;;;;;;;3.46;100.00;100759.38;5024226;27;20037;-67
2023/01/30 02:56:55;;;;;;;51.90;32.47;;;;;;;3.49;100.00;100755.88;5031280;27;20132;-66
2023/01/30 02:59:43;;;;;;;44.53;31.05;;;;;;;3.60;100.00;100761.75;5028464;27;20030;-67
2023/01/30 03:02:26;;;;;;;42.78;31.20;;;;;;;3.64;100.00;100768.63;5022957;27;20052;-67
2023/01/30 03:05:13;;;;;;;44.55;31.77;;;;;;;3.67;100.00;100778.13;5075041;27;20120;-68
2023/01/30 03:08:17;;;;;;;46.70;30.58;;;;;;;3.69;100.00;100756.41;5041233;28;20100;-69
2023/01/30 03:10:54;;;;;;;41.97;30.63;;;;;;;3.72;100.00;100756.34;5059065;27;20423;-68
2023/01/30 03:13:38;;;;;;;44.90;30.55;;;;;;;3.56;100.00;100715.94;5047621;28;20037;-67
2023/01/30 03:16:13;;;;;;;43.90;30.25;;;;;;;3.76;100.00;100747.63;5030750;27;20045;-67
2023/01/30 03:18:40;;;;;;;45.75;30.15;;;;;;;3.79;100.00;100734.59;5032767;27;20108;-67
2023/01/30 03:21:06;;;;;;;40.53;29.27;;;;;;;3.71;100.00;100701.84;5045858;27;20090;-67
2023/01/30 03:23:32;;;;;;;47.50;30.38;;;;;;;3.74;100.00;100723.44;5032214;27;20472;-67
2023/01/30 03:25:58;;;;;;;40.53;29.42;;;;;;;3.85;100.00;100736.25;5032315;27;20068;-67
2023/01/30 03:28:25;;;;;;;43.25;29.17;;;;;;;3.88;100.00;100737.06;5032025;28;20108;-67
2023/01/30 03:30:50;;;;;;;38.13;27.88;;;;;;;3.68;100.00;100710.56;5060026;27;20033;-68
2023/01/30 03:33:16;;;;;;;45.15;28.73;;;;;;;3.87;100.00;100735.31;5068649;27;20029;-67
2023/01/30 03:35:42;;;;;;;40.20;28.23;;;;;;;3.89;100.00;100727.47;5030958;27;20033;-67
2023/01/30 03:38:07;;;;;;;41.28;27.30;;;;;;;3.28;100.00;100624.63;5031973;28;20682;-67
2023/01/30 03:40:33;;;;;;;44.13;28.60;;;;;;;3.95;100.00;100733.47;5023695;28;20082;-67
2023/01/30 03:42:58;;;;;;;40.88;28.25;;;;;;;3.95;100.00;100730.88;5017504;28;20468;-68
2023/01/30 03:45:24;;;;;;;36.60;26.88;;;;;;;4.02;100.00;100737.63;5014480;27;20120;-67
2023/01/30 03:47:49;;;;;;;40.30;28.13;;;;;;;3.99;100.00;100729.91;5029944;27;20786;-67
2023/01/30 03:50:15;;;;;;;45.92;29.10;;;;;;;4.09;100.00;100718.44;5030477;28;20048;-68
2023/01/30 03:52:40;;;;;;;41.83;26.30;;;;;;;4.02;100.00;100709.03;5010627;28;20552;-67
2023/01/30 03:55:06;;;;;;;44.00;27.83;;;;;;;4.04;100.00;100712.47;5043823;27;20029;-67
2023/01/30 03:57:31;;;;;;;42.45;27.25;;;;;;;4.09;100.00;100718.44;5015363;28;20093;-67
2023/01/30 03:59:57;;;;;;;38.55;27.55;;;;;;;4.02;100.00;100711.63;5065971;27;20109;-67
2023/01/30 04:02:24;;;;;;;43.67;27.25;;;;;;;4.09;100.00;100713.25;5032024;27;20049;-67
2023/01/30 04:04:50;;;;;;;43.83;26.88;;;;;;;4.06;100.00;100704.63;5015624;28;20040;-66
2023/01/30 04:07:16;;;;;;;37.33;26.58;;;;;;;4.08;100.00;100708.94;5043817;27;20051;-67
2023/01/30 04:09:42;;;;;;;36.78;27.17;;;;;;;4.11;100.00;100702.81;5008581;28;20025;-67
2023/01/30 04:12:07;;;;;;;37.88;25.52;;;;;;;4.13;100.00;100706.25;5031578;27;20077;-67
2023/01/30 04:14:32;;;;;;;45.92;26.20;;;;;;;4.16;100.00;100710.56;5031400;28;20112;-67
2023/01/30 04:16:58;;;;;;;41.85;26.52;;;;;;;4.09;100.00;100700.25;5013038;28;20026;-66
2023/01/30 04:19:23;;;;;;;41.65;28.35;;;;;;;4.18;100.00;100712.22;5014013;28;20033;-66
2023/01/30 04:21:52;;;;;;;41.25;27.98;;;;;;;4.17;100.00;100699.25;5031489;27;20026;-66
2023/01/30 04:24:17;;;;;;;38.88;28.33;;;;;;;4.07;100.00;100689.03;5031603;28;20487;-67
2023/01/30 04:26:42;;;;;;;41.95;28.25;;;;;;;4.08;100.00;100693.34;5033626;27;20024;-66
2023/01/30 04:29:08;;;;;;;39.22;29.70;;;;;;;4.07;100.00;100695.97;5044296;28;20079;-67
2023/01/30 04:31:33;;;;;;;54.17;32.28;;;;;;;4.08;100.00;100698.53;5013336;28;20037;-68
2023/01/30 04:33:59;;;;;;;46.88;30.88;;;;;;;4.08;100.00;100692.50;5031718;27;20022;-68
2023/01/30 04:36:24;;;;;;;49.05;32.47;;;;;;;3.88;100.00;100653.88;5030522;28;20372;-68
2023/01/30 04:38:50;;;;;;;48.05;32.00;;;;;;;4.07;100.00;100682.97;5029124;27;20057;-68
2023/01/30 04:41:15;;;;;;;46.55;33.03;;;;;;;4.09;100.00;100687.25;5031161;27;20476;-68
2023/01/30 04:43:40;;;;;;;45.65;31.20;;;;;;;3.97;100.00;100656.28;4997601;28;20078;-68
2023/01/30 04:46:06;;;;;;;64.80;33.03;;;;;;;4.06;100.00;100666.50;5030771;28;20030;-68
2023/01/30 04:48:31;;;;;;;45.60;31.98;;;;;;;3.97;100.00;100648.50;5031264;28;20387;-68
2023/01/30 04:50:57;;;;;;;44.47;32.45;;;;;;;4.09;100.00;100679.44;5012746;28;20017;-68
2023/01/30 04:53:23;;;;;;;44.03;30.85;;;;;;;4.14;100.00;100671.56;5031000;28;20118;-68
2023/01/30 04:55:48;;;;;;;51.33;33.88;;;;;;;4.16;100.00;100685.38;5095688;27;20061;-68
2023/01/30 04:58:15;;;;;;;47.42;32.72;;;;;;;4.14;100.00;100676.75;5022681;28;20108;-70
2023/01/30 05:00:40;;;;;;;46.95;31.27;;;;;;;3.98;100.00;100658.00;5013197;28;20444;-69
2023/01/30 05:03:06;;;;;;;41.00;30.60;;;;;;;4.08;100.00;100654.34;5041129;28;20040;-69
2023/01/30 05:05:31;;;;;;;44.35;32.25;;;;;;;4.16;100.00;100674.16;5032810;28;20029;-69
2023/01/30 05:07:57;;;;;;;47.70;32.42;;;;;;;4.16;100.00;100669.78;5024070;27;20030;-69
2023/01/30 05:10:22;;;;;;;45.33;33.90;;;;;;;4.18;100.00;100667.16;5011582;27;20512;-69
2023/01/30 05:12:48;;;;;;;45.08;31.95;;;;;;;4.19;100.00;100679.28;5031132;28;20052;-68
2023/01/30 05:15:13;;;;;;;44.85;31.95;;;;;;;4.10;100.00;100669.91;5030340;28;20046;-69
2023/01/30 05:17:39;;;;;;;46.40;32.05;;;;;;;4.19;100.00;100687.91;5013239;28;20030;-67
2023/01/30 05:20:08;;;;;;;42.05;32.22;;;;;;;4.11;100.00;100662.09;5030570;27;20013;-69
2023/01/30 05:22:34;;;;;;;49.17;33.53;;;;;;;4.10;100.00;100664.69;5066959;27;20023;-69
2023/01/30 05:24:59;;;;;;;46.95;32.50;;;;;;;4.26;100.00;100676.50;5027039;27;20506;-69
2023/01/30 05:27:25;;;;;;;58.28;32.40;;;;;;;4.25;100.00;100673.94;5030717;28;20136;-69
2023/01/30 05:29:50;;;;;;;52.28;32.15;;;;;;;4.31;100.00;100681.63;5033257;27;20029;-68
2023/01/30 05:32:16;;;;;;;42.45;30.98;;;;;;;4.15;100.00;100662.03;5044101;27;20112;-69
2023/01/30 05:34:42;;;;;;;49.25;33.03;;;;;;;3.95;100.00;100619.09;5045445;27;20030;-68
2023/01/30 05:37:08;;;;;;;53.30;33.53;;;;;;;4.31;100.00;100681.63;5030731;28;20032;-68
2023/01/30 05:39:33;;;;;;;43.28;33.83;;;;;;;4.17;100.00;100653.28;5012085;28;20044;-68
2023/01/30 05:41:59;;;;;;;45.85;32.65;;;;;;;4.39;100.00;100680.59;5030522;28;20021;-68
2023/01/30 05:44:24;;;;;;;52.67;32.50;;;;;;;4.37;100.00;100668.50;5045538;28;20017;-68
2023/01/30 05:46:49;;;;;;;55.53;34.38;;;;;;;4.41;100.00;100671.00;5040941;28;20497;-68
2023/01/30 05:49:15;;;;;;;48.22;32.90;;;;;;;4.45;100.00;100687.41;5079809;27;20034;-68
2023/01/30 05:51:40;;;;;;;49.90;33.33;;;;;;;4.47;100.00;100690.81;5091524;27;20039;-68
2023/01/30 05:54:06;;;;;;;51.92;35.13;;;;;;;4.55;100.00;100691.53;5047122;27;20022;-68
2023/01/30 05:56:32;;;;;;;49.53;34.80;;;;;;;4.49;100.00;100679.53;5006720;28;20040;-68
2023/01/30 05:58:58;;;;;;;51.63;32.35;;;;;;;4.54;100.00;100672.47;5033606;27;20040;-69
2023/01/30 06:01:24;;;;;;;54.00;33.10;;;;;;;4.64;100.00;100684.38;5015714;27;20387;-68
2023/01/30 06:03:49;;;;;;;43.70;32.58;;;;;;;4.60;100.00;100663.66;5033406;27;20049;-68
2023/01/30 06:06:15;;;;;;;46.90;31.55;;;;;;;4.69;100.00;100681.69;5028078;28;20025;-76
2023/01/30 06:08:41;;;;;;;42.20;32.33;;;;;;;4.69;100.00;100660.88;5029536;27;20500;-70
2023/01/30 06:11:09;;;;;;;48.08;31.95;;;;;;;4.76;100.00;100666.81;5012366;28;20026;-72
2023/01/30 06:13:35;;;;;;;44.78;31.92;;;;;;;4.78;100.00;100665.00;5016393;28;20037;-72
2023/01/30 06:16:10;;;;;;;42.15;31.25;;;;;;;4.71;100.00;100651.28;5028496;28;20029;-73
2023/01/30 06:18:36;;;;;;;45.65;30.70;;;;;;;4.70;100.00;100652.16;5033851;28;20337;-72
2023/01/30 06:21:01;;;;;;;43.35;31.48;;;;;;;4.79;100.00;100672.78;5078809;27;20032;-72
2023/01/30 06:23:27;;;;;;;40.28;27.67;;;;;;;4.88;100.00;100709.03;5030026;28;20045;-74
2023/01/30 06:25:54;;;;;;;42.72;28.80;;;;;;;4.94;100.00;100708.03;5029551;28;20064;-71
2023/01/30 06:28:20;;;;;;;40.67;28.05;;;;;;;4.96;100.00;100712.31;5029948;28;20030;-72
2023/01/30 06:30:45;;;;;;;41.00;27.75;;;;;;;4.97;100.00;100698.41;4979468;28;20026;-73
2023/01/30 06:33:11;;;;;;;31.98;24.95;;;;;;;4.93;100.00;100691.56;4988029;27;21009;-74
2023/01/30 06:35:37;;;;;;;38.33;26.05;;;;;;;4.95;100.00;100688.91;5041891;27;20837;-67
2023/01/30 06:38:03;;;;;;;39.28;25.17;;;;;;;5.07;100.00;100699.91;5015088;27;20137;-68
2023/01/30 06:40:29;;;;;;;35.22;24.73;;;;;;;4.98;100.00;100678.44;5005436;27;20210;-69
2023/01/30 06:42:54;;;;;;;39.72;25.38;;;;;;;5.15;100.00;100692.78;4985256;27;20069;-68
2023/01/30 06:45:20;;;;;;;30.13;23.85;;;;;;;4.67;100.00;100613.19;5038758;27;20044;-69
2023/01/30 06:47:53;;;;;;;28.77;24.17;;;;;;;5.19;100.00;100703.97;5023050;27;20070;-69
2023/01/30 06:50:21;;;;;;;27.10;21.90;;;;;;;5.12;100.00;100692.84;5013865;27;20026;-69
2023/01/30 06:52:48;;;;;;;39.95;25.27;;;;;;;5.26;100.00;100699.47;5012337;27;20036;-69
2023/01/30 06:55:16;;;;;;;32.15;22.83;;;;;;;5.29;100.00;100722.84;4987675;27;20629;-75
2023/01/30 06:57:42;;;;;;;31.23;22.50;;;;;;;5.22;100.00;100713.47;4977569;27;20033;-74
2023/01/30 07:00:11;;;;;;;27.25;21.55;;;;;;;5.28;100.00;100708.09;4976837;27;20022;-68
2023/01/30 07:02:36;;;;;;;29.85;21.88;;;;;;;5.35;100.00;100725.31;5002277;27;20037;-68
2023/01/30 07:05:05;;;;;;;26.13;20.73;;;;;;;5.37;100.00;100729.63;4997200;27;20033;-73
2023/01/30 07:07:31;;;;;;;29.83;21.60;;;;;;;5.35;100.00;100714.88;4980255;27;20058;-68
2023/01/30 07:09:57;;;;;;;31.23;22.65;;;;;;;5.37;100.00;100713.97;5006091;27;20136;-72
2023/01/30 07:12:23;;;;;;;29.98;21.60;;;;;;;5.33;100.00;100725.38;4995059;27;20029;-71
2023/01/30 07:14:49;;;;;;;30.08;22.98;;;;;;;5.33;100.00;100721.91;5029769;27;20140;-77
2023/01/30 07:17:15;;;;;;;26.23;21.73;;;;;;;5.23;100.00;100707.38;4976269;28;20144;-73
2023/01/30 07:19:41;;;;;;;34.83;23.77;;;;;;;4.97;100.00;100653.28;4998960;27;20281;-74
2023/01/30 07:22:06;;;;;;;33.60;23.90;;;;;;;5.30;100.00;100721.97;5002390;27;20029;-71
2023/01/30 07:24:32;;;;;;;27.92;22.25;;;;;;;5.27;100.00;100717.69;5001823;27;20040;-71
2023/01/30 07:26:57;;;;;;;32.22;22.52;;;;;;;5.18;100.00;100714.41;5005739;27;20954;-73
2023/01/30 07:29:23;;;;;;;32.35;21.90;;;;;;;5.01;100.00;100705.25;4999740;27;20026;-70
2023/01/30 07:31:48;;;;;;;32.75;19.88;;;;;;;5.05;100.00;100727.75;4991736;27;20028;-75
2023/01/30 07:34:13;;;;;;;27.45;18.73;;;;;;;5.05;100.00;100732.94;4992211;27;20038;-71
2023/01/30 07:36:39;;;;;;;24.10;17.65;;;;;;;4.93;100.00;100722.81;4990007;27;20061;-69
2023/01/30 07:39:04;;;;;;;30.02;19.23;;;;;;;4.88;100.00;100729.00;5005398;27;20098;-75
2023/01/30 07:41:30;;;;;;;28.40;19.00;;;;;;;4.95;100.00;100751.41;5005278;27;20019;-73
2023/01/30 07:43:55;;;;;;;31.27;17.83;;;;;;;4.80;100.00;100736.13;5023484;27;20037;-75
2023/01/30 07:46:21;;;;;;;25.30;16.75;;;;;;;4.88;100.00;100761.09;5002150;27;20048;-73
2023/01/30 07:48:46;;;;;;;27.30;17.95;;;;;;;4.83;100.00;100754.28;5014605;27;20029;-72
2023/01/30 07:51:12;;;;;;;28.42;18.23;;;;;;;4.88;100.00;100763.69;4980196;27;20029;-71
2023/01/30 07:53:37;;;;;;;29.27;19.20;;;;;;;4.58;100.00;100710.53;4991133;27;20034;-71
2023/01/30 07:56:12;;;;;;;33.22;20.38;;;;;;;4.63;100.00;100726.03;4995663;27;20959;-72
2023/01/30 07:58:38;;;;;;;29.38;19.23;;;;;;;4.81;100.00;100758.66;4982065;27;20089;-72
2023/01/30 08:01:04;;;;;;;29.15;20.00;;;;;;;4.70;100.00;100755.44;4973077;28;20765;-71
2023/01/30 08:03:30;;;;;;;34.88;21.75;;;;;;;4.48;100.00;100703.81;5004842;27;20036;-71
2023/01/30 08:05:55;;;;;;;32.78;21.52;;;;;;;4.90;100.00;100769.72;4999075;27;20059;-71
2023/01/30 08:08:20;;;;;;;33.15;21.20;;;;;;;4.92;100.00;100778.38;4999171;27;20028;-71
2023/01/30 08:10:49;;;;;;;32.85;21.27;;;;;;;4.94;100.00;100770.50;4981429;28;20098;-71
2023/01/30 08:13:15;;;;;;;36.80;20.52;;;;;;;4.85;100.00;100750.75;5000203;27;20512;-71
2023/01/30 08:15:40;;;;;;;30.33;21.35;;;;;;;4.94;100.00;100763.56;5009139;27;20040;-72
2023/01/30 08:18:06;;;;;;;38.53;20.38;;;;;;;4.98;100.00;100770.41;5002374;27;20082;-71
2023/01/30 08:20:32;;;;;;;39.08;20.00;;;;;;;4.81;100.00;100743.03;4999285;27;20066;-71
2023/01/30 08:22:58;;;;;;;26.65;18.98;;;;;;;5.02;100.00;100774.69;4985398;27;20086;-71
2023/01/30 08:25:23;;;;;;;36.55;19.25;;;;;;;4.98;100.00;100770.41;4999119;27;20400;-71
2023/01/30 08:27:49;;;;;;;34.35;18.35;;;;;;;5.00;100.00;100776.44;4994693;27;20161;-72
2023/01/30 08:30:15;;;;;;;29.83;18.48;;;;;;;5.03;100.00;100779.00;4998003;27;20094;-72
2023/01/30 08:32:40;;;;;;;34.28;17.45;;;;;;;5.04;100.00;100782.44;4996886;27;20025;-72
2023/01/30 08:35:06;;;;;;;31.00;18.90;;;;;;;5.06;100.00;100771.13;4990054;27;20074;-71
2023/01/30 08:37:31;;;;;;;31.85;18.15;;;;;;;5.08;100.00;100774.53;5021454;27;20868;-71
2023/01/30 08:39:57;;;;;;;27.13;18.30;;;;;;;5.06;100.00;100775.47;5031667;27;20033;-71
2023/01/30 08:42:22;;;;;;;27.33;18.10;;;;;;;5.11;100.00;100786.63;4991444;27;20037;-72
2023/01/30 08:44:48;;;;;;;28.77;17.70;;;;;;;5.14;100.00;100795.22;4993810;27;20043;-72
2023/01/30 08:47:14;;;;;;;34.45;17.85;;;;;;;5.21;100.00;100795.09;4988632;27;20033;-71
2023/01/30 08:49:39;;;;;;;30.00;16.67;;;;;;;5.01;100.00;100766.88;4976918;28;20135;-71
2023/01/30 08:52:05;;;;;;;28.27;14.57;;;;;;;5.23;100.00;100801.16;5001737;27;20025;-71
2023/01/30 08:54:30;;;;;;;24.50;12.13;;;;;;;5.20;100.00;100785.59;4989983;27;20492;-70
2023/01/30 08:56:55;;;;;;;22.98;11.07;;;;;;;5.23;100.00;100795.94;4992577;27;20566;-73
2023/01/30 08:59:21;;;;;;;18.63;9.32;;;;;;;5.22;100.00;100802.03;4963271;28;20140;-71
2023/01/30 09:01:46;;;;;;;19.80;9.00;;;;;;;5.25;100.00;100795.00;4987413;27;20040;-72
2023/01/30 09:04:11;;;;;;;17.27;8.40;;;;;;;5.14;100.00;100778.75;4979270;28;20913;-71
2023/01/30 09:06:37;;;;;;;17.25;7.90;;;;;;;5.28;100.00;100799.28;4983699;27;20044;-71
2023/01/30 09:09:02;;;;;;;18.83;7.38;;;;;;;5.11;100.00;100779.69;5007156;27;20060;-71
2023/01/30 09:11:28;;;;;;;13.88;6.72;;;;;;;5.25;100.00;100807.16;4998551;27;20026;-72
2023/01/30 09:13:53;;;;;;;20.23;7.13;;;;;;;5.30;100.00;100816.63;4994904;27;20893;-71
2023/01/30 09:16:19;;;;;;;20.98;5.85;;;;;;;5.27;100.00;100814.09;4999672;27;20881;-71
2023/01/30 09:18:44;;;;;;;17.08;5.93;;;;;;;5.34;100.00;100820.00;4993733;27;20095;-72
2023/01/30 09:21:11;;;;;;;17.02;6.78;;;;;;;5.42;100.00;100837.19;5002067;27;20028;-71
2023/01/30 09:23:37;;;;;;;19.23;7.90;;;;;;;5.40;100.00;100822.47;4991016;28;20031;-71
2023/01/30 09:26:03;;;;;;;21.13;7.97;;;;;;;5.21;100.00;100782.94;5004034;27;20052;-70
2023/01/30 09:28:29;;;;;;;19.83;9.38;;;;;;;5.52;100.00;100819.56;4975925;27;20021;-75
2023/01/30 09:30:59;;;;;;;24.85;9.43;;;;;;;5.42;100.00;100785.06;4996894;27;20207;-72
2023/01/30 09:33:24;;;;;;;25.02;9.88;;;;;;;5.60;100.00;100804.63;4986612;27;20892;-68
2023/01/30 09:35:50;;;;;;;26.70;10.50;;;;;;;5.79;100.00;100831.13;4997519;27;20036;-71
2023/01/30 09:38:17;;;;;;;27.73;11.10;;;;;;;5.83;100.00;100836.22;5008715;27;20839;-72
2023/01/30 09:40:51;;;;;;;20.92;9.15;;;;;;;5.86;100.00;100828.38;4985468;27;20904;-71
2023/01/30 09:43:48;;;;;;;26.50;9.10;;;;;;;5.69;100.00;100778.34;5004036;27;20025;-72
2023/01/30 09:46:38;;;;;;;23.55;8.75;;;;;;;6.08;100.00;100854.78;4989924;27;20048;-72
2023/01/30 09:49:12;;;;;;;22.10;8.40;;;;;;;6.10;100.00;100858.22;4997196;27;20025;-73
2023/01/30 09:51:40;;;;;;;21.77;7.20;;;;;;;6.00;100.00;100852.38;5003489;27;20025;-75
2023/01/30 09:54:21;;;;;;;21.30;6.75;;;;;;;5.94;100.00;100868.16;5003488;27;20045;-73
2023/01/30 09:56:52;;;;;;;15.75;6.60;;;;;;;5.64;100.00;100801.06;4991181;27;20021;-73
2023/01/30 09:59:24;;;;;;;18.42;6.18;;;;;;;5.85;100.00;100842.25;5019322;27;20032;-73
2023/01/30 10:01:59;;;;;;;14.23;6.60;;;;;;;6.12;100.00;100872.06;5005681;27;20865;-75
2023/01/30 10:04:32;;;;;;;15.15;6.75;;;;;;;6.22;100.00;100862.28;4988641;27;20040;-69
2023/01/30 10:07:14;;;;;;;18.30;8.00;;;;;;;6.37;100.00;100852.31;5050173;27;20024;-75
2023/01/30 10:09:51;;;;;;;24.70;7.78;;;;;;;6.42;100.00;100849.59;4992080;27;20064;-71
2023/01/30 10:12:31;;;;;;;20.98;7.95;;;;;;;6.46;100.00;100856.41;4993850;27;20037;-74
2023/01/30 10:15:21;;;;;;;12.25;5.80;;;;;;;6.52;100.00;100869.34;4992488;27;20117;-72
2023/01/30 10:18:19;;;;;;;14.75;6.10;;;;;;;6.18;100.00;100810.16;5000287;27;20043;-72
2023/01/30 10:21:16;;;;;;;18.48;6.63;;;;;;;6.59;100.00;100873.50;4993808;27;20796;-76
2023/01/30 10:24:03;;;;;;;20.15;6.13;;;;;;;6.71;100.00;100890.56;5015574;27;20948;-77
2023/01/30 10:26:30;;;;;;;20.05;6.82;;;;;;;6.77;100.00;100886.03;4989514;28;20542;-72
2023/01/30 10:29:00;;;;;;;19.23;6.78;;;;;;;6.75;100.00;100890.47;4972828;28;20028;-72
2023/01/30 10:31:31;;;;;;;14.13;6.18;;;;;;;6.62;100.00;100871.63;4975103;28;20025;-76
2023/01/30 10:33:56;;;;;;;21.92;7.80;;;;;;;6.73;100.00;100913.13;5019227;27;21071;-70
2023/01/30 10:36:34;;;;;;;15.40;6.18;;;;;;;6.60;100.00;100886.50;4995109;27;20033;-72
2023/01/30 10:39:01;;;;;;;16.95;7.68;;;;;;;6.68;100.00;100905.44;4999585;27;20408;-72
2023/01/30 10:41:30;;;;;;;18.25;6.80;;;;;;;6.76;100.00;100902.59;4995026;27;20029;-72
2023/01/30 10:43:57;;;;;;;18.30;6.82;;;;;;;6.72;100.00;100903.59;4993878;28;20088;-71
2023/01/30 10:46:29;;;;;;;16.20;6.85;;;;;;;6.60;100.00;100877.78;4986863;27;20206;-71
2023/01/30 10:48:58;;;;;;;25.85;6.15;;;;;;;6.77;100.00;100901.72;5005142;27;20040;-71
2023/01/30 10:51:38;;;;;;;19.27;6.15;;;;;;;6.81;100.00;100895.50;5011568;27;20040;-74
2023/01/30 10:54:16;;;;;;;16.75;5.72;;;;;;;6.78;100.00;100893.00;4981542;27;20037;-70
2023/01/30 10:56:56;;;;;;;18.45;5.32;;;;;;;6.76;100.00;100876.50;4998242;27;20049;-71
2023/01/30 10:59:24;;;;;;;14.88;4.65;;;;;;;6.84;100.00;100897.19;5021301;27;20035;-70
2023/01/30 11:02:21;;;;;;;12.07;4.35;;;;;;;6.76;100.00;100897.38;5035583;28;20268;-78
2023/01/30 11:04:58;;;;;;;13.88;4.70;;;;;;;6.71;100.00;100901.88;4991545;27;20029;-72
2023/01/30 11:07:24;;;;;;;22.35;4.97;;;;;;;6.74;100.00;100899.19;4980798;27;20129;-73
2023/01/30 11:09:50;;;;;;;18.20;5.18;;;;;;;6.62;100.00;100889.91;4982270;28;20140;-71
2023/01/30 11:12:15;;;;;;;14.15;4.43;;;;;;;6.60;100.00;100893.47;5000337;28;20025;-72
2023/01/30 11:14:51;;;;;;;14.82;4.63;;;;;;;6.59;100.00;100915.28;4988186;27;20219;-76
2023/01/30 11:17:18;;;;;;;17.20;4.72;;;;;;;6.56;100.00;100903.13;4980342;27;20958;-72
2023/01/30 11:19:43;;;;;;;12.30;4.80;;;;;;;6.56;100.00;100905.75;4992849;27;20025;-72
2023/01/30 11:22:12;;;;;;;18.17;3.83;;;;;;;6.56;100.00;100904.88;4989200;27;20022;-73
2023/01/30 11:24:41;;;;;;;10.63;4.53;;;;;;;6.53;100.00;100915.41;4977124;28;20094;-71